• Join FlightAware (Why Join?)
  • Login
  • US Flag GB Flag 
12:47 EST


 

Airport Tracker/Info


-or-


 

Live Flight TrackerFlight Track Log ✈ EJA328 ✈ 01-Apr-2014 ✈ KMAF - KHOU

Flight Track Log - Related Links

Times and Time Zones

All times are in EDT time to prevent confusion due to time zone crossing. See the EJA328 flight status page for this flight to view local times or setup timezone preferences in your user account.

Time Position Orientation Groundspeed Altitude Reporting Facility
EDT Latitude Longitude Course Direction KTS MPH feet Rate Location/Type
20:00 32.0042 -102.2603 120° Southeast 250 288 8,200  Level Houston Center
20:01 32.0039 -102.1822 90° East 270 311 11,200 3,240 Climbing Houston Center
20:02 31.9661 -102.0775 113° Southeast 279 321 15,100 2,880 Climbing Fort Worth Center
20:03 31.9306 -101.9778 113° Southeast 320 368 17,300 2,160 Climbing Fort Worth Center
20:04 31.8925 -101.8700 113° Southeast 347 399 19,700 2,220 Climbing Fort Worth Center
20:05 31.9203 -102.1573 120° Southeast  Level FlightAware Approximate
20:05 31.8506 -101.7531 113° Southeast 375 432 22,000  Level Fort Worth Center
20:06 31.8081 -101.6369 113° Southeast 381 438 23,700 1,740 Climbing Fort Worth Center
20:07 31.7650 -101.5161 113° Southeast 393 452 25,700 1,920 Climbing Fort Worth Center
20:08 31.7203 -101.3953 113° Southeast 399 459 27,700 2,040 Climbing Fort Worth Center
20:09 31.6664 -101.2469 113° Southeast 409 471 30,000 1,980 Climbing Fort Worth Center
20:10 31.6203 -101.1203 113° Southeast 418 481 31,900 1,440 Climbing Fort Worth Center
20:11 31.5744 -100.9936 113° Southeast 421 484 33,000 480 Climbing Fort Worth Center
20:12 31.5239 -100.8564 113° Southeast 449 517 33,000  Level Fort Worth Center
20:13 31.4697 -100.7106 114° Southeast 482 555 33,000  Level Fort Worth Center
20:14 31.4128 -100.5558 113° Southeast 500 575 33,000  Level Houston Center
20:15 31.3569 -100.4031 113° Southeast 506 582 33,000  Level Houston Center
20:16 31.3039 -100.2483 112° Southeast 507 583 33,000  Level Houston Center
20:17 31.2531 -100.0958 111° Southeast 507 583 33,000  Level Houston Center
20:23 30.9587 -99.2469 112° Southeast 511 588 33,000  Level FlightAware ADS-B
20:24 30.8961 -99.0691 112° Southeast 521 600 33,000  Level FlightAware ADS-B
20:25 30.8594 -98.9649 112° Southeast 518 596 33,000  Level FlightAware ADS-B
20:26 30.8172 -98.8459 112° Southeast 518 596 33,000  Level FlightAware ADS-B
20:26 30.7944 -98.7623 98° East 527 606 33,000  Level FlightAware ADS-B
20:27 30.7829 -98.6394 96° East 526 605 33,000  Level FlightAware ADS-B
20:28 30.7654 -98.4551 96° East 525 604 33,000  Level FlightAware ADS-B
20:28 30.7614 -98.4124 112° Southeast 517 595 33,000  Level FlightAware ADS-B (KHOU)
20:29 30.7455 -98.2464 96° East 523 602 33,000  Level FlightAware ADS-B (KHOU)
20:30 30.7408 -98.1978 96° East 524 603 33,000  Level FlightAware ADS-B
20:30 30.7390 -98.1790 96° East 524 603 33,000  Level FlightAware ADS-B (KHOU)
20:30 30.7309 -98.0959 96° East 523 602 33,000  Level FlightAware ADS-B (KGTU)
20:31 30.7226 -98.0111 96° East 525 604 33,000  Level FlightAware ADS-B (KGTU)
20:31 30.7238 -98.0226 96° East 525 604 33,000  Level FlightAware ADS-B (KHOU)
20:31 30.7141 -97.9236 96° East 524 603 33,000  Level FlightAware ADS-B (KGTU)
20:31 30.7127 -97.9099 96° East 524 603 33,000  Level FlightAware ADS-B (KHOU)
20:31 30.7113 -97.8957 96° East 524 603 33,000  Level FlightAware ADS-B (KGTU)
20:32 30.7038 -97.8199 96° East 523 602 33,000  Level FlightAware ADS-B (KHOU)
20:32 30.7030 -97.8115 96° East 523 602 33,000  Level FlightAware ADS-B (KGTU)
20:32 30.7004 -97.7853 96° East 523 602 33,000  Level FlightAware ADS-B (KGTU)
20:32 30.6961 -97.7429 96° East 523 602 33,000  Level FlightAware ADS-B (KHOU)
20:32 30.7044 -97.8258 97° East 524 603 33,000  Level FlightAware ADS-B
20:33 30.6882 -97.6643 96° East 522 601 33,000  Level FlightAware ADS-B (KHOU)
20:33 30.6790 -97.5735 96° East 522 601 33,000  Level FlightAware ADS-B (KHOU)
20:33 30.6774 -97.5317 90° East 523 602 33,000  Level FlightAware ADS-B (KGTU)
20:34 30.6791 -97.4412 90° East 524 603 33,000  Level FlightAware ADS-B (KGTU)
20:34 30.6793 -97.4275 88° East 524 603 33,000 -600 Level FlightAware ADS-B (KHOU)
20:35 30.6819 -97.3285 85° East 531 611 32,600 -1,140 Descending FlightAware ADS-B (KHOU)
20:35 30.6903 -97.2450 83° East 517 595 31,800 -2,160 Descending FlightAware ADS-B (KHOU)
20:35 30.6963 -97.1869 84° East 519 597 30,800 -3,000 Descending FlightAware ADS-B (KGTU)
20:36 30.6987 -97.1645 82° East 504 580 30,300 -3,360 Descending FlightAware ADS-B (KHOU)
20:36 30.7073 -97.0875 82° East 497 572 28,700 -3,000 Descending FlightAware ADS-B (KHOU)
20:37 30.7164 -97.0043 82° East 487 560 27,300 -2,700 Descending FlightAware ADS-B (KHOU)
20:37 30.7248 -96.9293 82° East 466 536 26,000 -2,400 Descending FlightAware ADS-B (KHOU)
20:38 30.7333 -96.8580 82° East 467 537 24,900 -2,340 Descending FlightAware ADS-B (KHOU)
20:38 30.7429 -96.7810 81° East 461 531 23,700 -2,400 Descending FlightAware ADS-B (KHOU)
20:39 30.7534 -96.7004 81° East 453 521 22,400 -2,460 Descending FlightAware ADS-B
20:39 30.7589 -96.6577 86° East 445 512 21,500 -2,400 Descending FlightAware ADS-B (KHOU)
20:39 30.7578 -96.6281 100° East 438 504 21,200 -2,340 Descending FlightAware ADS-B
20:39 30.7515 -96.6062 112° Southeast 432 497 20,800 -2,400 Descending FlightAware ADS-B
20:39 30.7456 -96.5943 126° Southeast 423 487 20,400 -2,280 Descending FlightAware ADS-B
20:40 30.7344 -96.5791 136° Southeast 413 475 20,200 -2,100 Descending FlightAware ADS-B
20:40 30.7125 -96.5632 156° South 393 452 19,700 -2,100 Descending FlightAware ADS-B
20:40 30.6988 -96.5588 167° South 379 436 19,400 -2,280 Descending FlightAware ADS-B
20:40 30.6420 -96.5454 168° South 377 434 18,200 -2,340 Descending FlightAware ADS-B
20:41 30.5907 -96.5338 169° South 380 437 17,000 -2,340 Descending FlightAware ADS-B
20:41 30.5441 -96.5239 169° South 378 435 15,900 -2,340 Descending FlightAware ADS-B
20:42 30.5199 -96.5180 162° South 380 437 15,400 -2,340 Descending FlightAware ADS-B (KHOU)
20:42 30.5048 -96.5096 149° Southeast 385 443 15,100 -2,520 Descending FlightAware ADS-B
20:42 30.4910 -96.4962 136° Southeast 391 450 14,700 -2,340 Descending FlightAware ADS-B
20:42 30.4523 -96.4534 137° Southeast 383 441 13,600 -2,280 Descending FlightAware ADS-B
20:43 30.4203 -96.4207 138° Southeast 361 415 12,600 -2,100 Descending FlightAware ADS-B
20:43 30.3878 -96.3881 139° Southeast 336 387 11,600 -1,200 Descending FlightAware ADS-B
20:44 30.3216 -96.3219 138° Southeast 331 381 11,000 -480 Descending FlightAware ADS-B
20:45 30.2855 -96.2858 138° Southeast 327 376 11,000  Level FlightAware ADS-B
20:45 30.2586 -96.2588 139° Southeast 302 348 11,000  Level FlightAware ADS-B
20:46 30.2207 -96.2211 139° Southeast 305 351 11,000  Level FlightAware ADS-B
20:46 30.1951 -96.2002 153° Southeast 300 345 11,000  Level FlightAware ADS-B (KHOU)
20:47 30.1569 -96.1805 154° Southeast 300 345 11,000  Level FlightAware ADS-B (KHOU)
20:47 30.1189 -96.1599 154° Southeast 300 345 11,000  Level FlightAware ADS-B (KHOU)
20:47 30.1072 -96.1509 142° Southeast 304 350 11,000  Level FlightAware ADS-B (KHOU)
20:48 30.0673 -96.1134 140° Southeast 304 350 11,000  Level FlightAware ADS-B
20:48 30.0352 -96.0833 140° Southeast 304 350 11,000  Level FlightAware ADS-B
20:49 30.0002 -96.0505 140° Southeast 304 350 11,000 -660 Level FlightAware ADS-B
20:50 29.9655 -96.0178 140° Southeast 299 344 10,300 -1,440 Descending FlightAware ADS-B
20:50 29.9442 -95.9979 140° Southeast 293 337 9,800 -1,860 Descending FlightAware ADS-B (KHOU)
20:50 29.9286 -95.9832 140° Southeast 292 336 9,300 -2,040 Descending FlightAware ADS-B (KHOU)
20:50 29.9127 -95.9684 141° Southeast 287 330 8,800 -2,220 Descending FlightAware ADS-B (KHOU)
20:51 29.8971 -95.9539 141° Southeast 284 327 8,200 -2,220 Descending FlightAware ADS-B (KHOU)
20:51 29.8821 -95.9402 141° Southeast 281 323 7,700 -2,100 Descending FlightAware ADS-B (KHOU)
20:51 29.8666 -95.9260 141° Southeast 277 319 7,200 -2,040 Descending FlightAware ADS-B (KHOU)
20:51 29.8516 -95.9123 141° Southeast 273 314 6,700 -2,040 Descending FlightAware ADS-B (KHOU)
20:52 29.8370 -95.8988 141° Southeast 268 308 6,200 -1,440 Descending FlightAware ADS-B (KHOU)
20:52 29.8224 -95.8857 141° Southeast 262 302 6,000 -360 Descending FlightAware ADS-B (KHOU)
20:52 29.8035 -95.8689 142° Southeast 256 295 6,000  Level FlightAware ADS-B (KHOU)
20:53 29.7849 -95.8524 142° Southeast 250 288 6,000  Level FlightAware ADS-B (KHOU)
20:53 29.7668 -95.8362 142° Southeast 248 285 6,000  Level FlightAware ADS-B (KHOU)
20:53 29.7480 -95.8196 142° Southeast 260 299 6,000  Level FlightAware ADS-B (KHOU)
20:54 29.7286 -95.8024 142° Southeast 264 304 6,000  Level FlightAware ADS-B (KHOU)
20:54 29.7091 -95.7851 142° Southeast 264 304 6,000  Level FlightAware ADS-B (KHOU)
20:54 29.6895 -95.7678 142° Southeast 264 304 6,000  Level FlightAware ADS-B (KHOU)
20:55 29.6700 -95.7505 142° Southeast 265 305 6,000  Level FlightAware ADS-B (KHOU)
20:55 29.6511 -95.7339 142° Southeast 265 305 6,000  Level FlightAware ADS-B (KHOU)
20:55 29.6311 -95.7160 142° Southeast 265 305 6,000  Level FlightAware ADS-B (KHOU)
20:55 29.6175 -95.7024 130° Southeast 266 306 6,000  Level FlightAware ADS-B (KHOU)
20:55 29.6141 -95.6961 118° Southeast 261 300 6,000  Level FlightAware ADS-B (KHOU)
20:56 29.6115 -95.6831 93° East 251 289 6,000  Level FlightAware ADS-B (KHOU)
20:56 29.6122 -95.6759 78° East 245 282 6,000  Level FlightAware ADS-B (KHOU)
20:56 29.6138 -95.6704 68° East 242 278 6,000  Level FlightAware ADS-B (KHOU)
20:56 29.6170 -95.6643 57° Northeast 243 280 6,000  Level FlightAware ADS-B (KHOU)
20:56 29.6201 -95.6597 52° Northeast 243 280 6,000 -300 Level FlightAware ADS-B (KHOU)
20:56 29.6346 -95.6389 51° Northeast 242 278 5,900 -720 Descending FlightAware ADS-B (KHOU)
20:57 29.6448 -95.6241 51° Northeast 238 274 5,600 -1,440 Descending FlightAware ADS-B (KHOU)
20:57 29.6553 -95.6090 51° Northeast 239 275 5,200 -1,560 Descending FlightAware ADS-B (KHOU)
20:57 29.6657 -95.5941 51° Northeast 240 276 4,800 -1,380 Descending FlightAware ADS-B (KHOU)
20:57 29.6764 -95.5791 50° Northeast 239 275 4,500 -1,440 Descending FlightAware ADS-B (KHOU)
20:58 29.6870 -95.5642 50° Northeast 237 273 4,100 -1,080 Descending FlightAware ADS-B (KHOU)
20:58 29.6973 -95.5499 50° Northeast 227 261 4,000 -180 Descending FlightAware ADS-B (KHOU)
20:58 29.7104 -95.5319 50° Northeast 215 247 4,000  Level FlightAware ADS-B (KHOU)
20:59 29.7222 -95.5159 49° Northeast 187 215 4,000 -540 Level FlightAware ADS-B (KHOU)
20:59 29.7309 -95.5043 49° Northeast 190 219 3,700 -1,080 Descending FlightAware ADS-B (KHOU)
20:59 29.7381 -95.4949 48° Northeast 184 212 3,500 -1,500 Descending FlightAware ADS-B (KROW)
20:59 29.7479 -95.4822 48° Northeast 184 212 3,000 -2,100 Descending FlightAware ADS-B (KROW)
21:00 29.7567 -95.4706 54° Northeast 186 214 2,400 -2,100 Descending FlightAware ADS-B (KROW)
21:00 29.7582 -95.4671 67° East 179 206 2,300 -1,380 Descending FlightAware ADS-B (KROW)
21:00 29.7589 -95.4624 84° East 171 197 2,200 -1,200 Descending FlightAware ADS-B (KROW)
21:00 29.7584 -95.4575 98° East 168 193 2,100 -600 Descending FlightAware ADS-B (KROW)
21:00 29.7576 -95.4539 104° East 168 193 2,100 -360 Level FlightAware ADS-B (KROW)
21:00 29.7544 -95.4411 103° East 165 190 2,000 -240 Descending FlightAware ADS-B (KROW)
21:00 29.7520 -95.4277 101° East 158 182 2,000  Level FlightAware ADS-B (KROW)
21:01 29.7494 -95.4157 104° East 158 182 2,000  Level FlightAware ADS-B (KHOU)
21:01 29.7466 -95.4040 106° East 165 190 2,000  Level FlightAware ADS-B (KROW)
21:01 29.7439 -95.3953 115° Southeast 164 189 2,000  Level FlightAware ADS-B (KROW)
21:01 29.7415 -95.3913 128° Southeast 158 182 2,000  Level FlightAware ADS-B (KROW)
21:01 29.7388 -95.3882 135° Southeast 154 177 2,000  Level FlightAware ADS-B (KHOU)
21:01 29.7386 -95.3879 131° Southeast 157 181 2,000  Level FlightAware ADS-B (KROW)
21:01 29.7313 -95.3803 138° Southeast 141 162 2,000  Level FlightAware ADS-B (KHOU)
21:01 29.7320 -95.3811 131° Southeast 157 181 2,000  Level FlightAware ADS-B (KROW)
21:02 29.7267 -95.3755 136° Southeast 123 142 2,000  Level FlightAware ADS-B (KHOU)
21:02 29.7225 -95.3707 134° Southeast 118 136 2,000 -240 Level FlightAware ADS-B (KROW)
21:02 29.7159 -95.3630 134° Southeast 115 132 1,900 -480 Descending FlightAware ADS-B (KROW)
21:02 29.7117 -95.3578 132° Southeast 113 130 1,800 -720 Descending FlightAware ADS-B (KHOU)
21:03 29.7064 -95.3514 133° Southeast 110 127 1,600 -600 Descending FlightAware ADS-B (KHOU)
21:03 29.7010 -95.3451 134° Southeast 107 123 1,500 -420 Descending FlightAware ADS-B (KHOU)
21:03 29.6959 -95.3390 134° Southeast 103 119 1,400 -660 Descending FlightAware ADS-B (KHOU)
21:03 29.6908 -95.3331 133° Southeast 102 117 1,200 -720 Descending FlightAware ADS-B (KHOU)
21:04 29.6839 -95.3250 133° Southeast 106 122 1,000 -540 Descending FlightAware ADS-B (KHOU)
21:04 29.6686 -95.3067 133° Southeast 105 121 600 -480 Descending Houston Center
21:05 29.6600 -95.2961 133° Southeast 110 127 400 -300 Descending Houston Center
21:06 29.6397 -95.2719 134° Southeast 110 127 200 -240 Descending Houston Center